sensor_id;sensor_type;location;lat;lon;timestamp;temperature;humidity
7496;DHT22;3789;47.064;15.482;2023-08-17T00:02:14;17.50;99.90
7496;DHT22;3789;47.064;15.482;2023-08-17T00:04:42;17.50;99.90
7496;DHT22;3789;47.064;15.482;2023-08-17T00:07:11;17.40;99.90
7496;DHT22;3789;47.064;15.482;2023-08-17T00:09:39;17.40;99.90
7496;DHT22;3789;47.064;15.482;2023-08-17T00:12:11;17.40;99.90
7496;DHT22;3789;47.064;15.482;2023-08-17T00:14:41;17.40;99.90
7496;DHT22;3789;47.064;15.482;2023-08-17T00:17:10;17.30;99.90
7496;DHT22;3789;47.064;15.482;2023-08-17T00:19:38;17.30;99.90
7496;DHT22;3789;47.064;15.482;2023-08-17T00:22:09;17.30;99.90
7496;DHT22;3789;47.064;15.482;2023-08-17T00:24:39;17.40;99.90
7496;DHT22;3789;47.064;15.482;2023-08-17T00:27:10;17.20;99.90
7496;DHT22;3789;47.064;15.482;2023-08-17T00:29:42;17.20;99.90
7496;DHT22;3789;47.064;15.482;2023-08-17T00:32:11;17.20;99.90
7496;DHT22;3789;47.064;15.482;2023-08-17T00:34:42;17.20;99.90
7496;DHT22;3789;47.064;15.482;2023-08-17T00:37:13;17.20;99.90
7496;DHT22;3789;47.064;15.482;2023-08-17T00:39:42;17.20;99.90
7496;DHT22;3789;47.064;15.482;2023-08-17T00:42:11;17.20;99.90
7496;DHT22;3789;47.064;15.482;2023-08-17T00:44:39;17.20;99.90
7496;DHT22;3789;47.064;15.482;2023-08-17T00:47:13;17.20;99.90
7496;DHT22;3789;47.064;15.482;2023-08-17T00:49:47;17.30;99.90
7496;DHT22;3789;47.064;15.482;2023-08-17T00:52:16;17.30;99.90
7496;DHT22;3789;47.064;15.482;2023-08-17T00:54:52;17.20;99.90
7496;DHT22;3789;47.064;15.482;2023-08-17T00:57:48;17.20;99.90
7496;DHT22;3789;47.064;15.482;2023-08-17T01:00:18;17.30;99.90
7496;DHT22;3789;47.064;15.482;2023-08-17T01:02:47;17.20;99.90
7496;DHT22;3789;47.064;15.482;2023-08-17T01:05:27;17.10;99.90
7496;DHT22;3789;47.064;15.482;2023-08-17T01:08:00;17.10;99.90
7496;DHT22;3789;47.064;15.482;2023-08-17T01:11:01;17.10;99.90
7496;DHT22;3789;47.064;15.482;2023-08-17T01:17:18;17.20;99.90
7496;DHT22;3789;47.064;15.482;2023-08-17T01:20:31;17.20;99.90
7496;DHT22;3789;47.064;15.482;2023-08-17T01:23:08;17.20;99.90
7496;DHT22;3789;47.064;15.482;2023-08-17T01:25:37;17.40;99.90
7496;DHT22;3789;47.064;15.482;2023-08-17T01:28:14;17.50;99.90
7496;DHT22;3789;47.064;15.482;2023-08-17T01:30:58;17.20;99.90
7496;DHT22;3789;47.064;15.482;2023-08-17T01:33:56;16.90;99.90
7496;DHT22;3789;47.064;15.482;2023-08-17T01:36:37;16.90;99.90
7496;DHT22;3789;47.064;15.482;2023-08-17T01:39:11;17.10;99.90
7496;DHT22;3789;47.064;15.482;2023-08-17T01:41:43;17.20;99.90
7496;DHT22;3789;47.064;15.482;2023-08-17T01:44:15;17.30;99.90
7496;DHT22;3789;47.064;15.482;2023-08-17T01:46:47;17.30;99.90
7496;DHT22;3789;47.064;15.482;2023-08-17T01:49:19;17.20;99.90
7496;DHT22;3789;47.064;15.482;2023-08-17T01:51:48;16.90;99.90
7496;DHT22;3789;47.064;15.482;2023-08-17T01:54:17;16.60;99.90
7496;DHT22;3789;47.064;15.482;2023-08-17T01:56:47;16.70;99.90
7496;DHT22;3789;47.064;15.482;2023-08-17T01:59:16;16.90;99.90
7496;DHT22;3789;47.064;15.482;2023-08-17T02:01:46;17.00;99.90
7496;DHT22;3789;47.064;15.482;2023-08-17T02:04:24;17.00;99.90
7496;DHT22;3789;47.064;15.482;2023-08-17T02:07:03;17.00;99.90
7496;DHT22;3789;47.064;15.482;2023-08-17T02:09:32;17.00;99.90
7496;DHT22;3789;47.064;15.482;2023-08-17T02:12:24;17.10;99.90
7496;DHT22;3789;47.064;15.482;2023-08-17T02:15:01;17.10;99.90
7496;DHT22;3789;47.064;15.482;2023-08-17T02:17:38;17.10;99.90
7496;DHT22;3789;47.064;15.482;2023-08-17T02:20:11;16.90;99.90
7496;DHT22;3789;47.064;15.482;2023-08-17T02:22:44;16.80;99.90
7496;DHT22;3789;47.064;15.482;2023-08-17T02:25:16;16.80;99.90
7496;DHT22;3789;47.064;15.482;2023-08-17T02:27:46;16.70;99.90
7496;DHT22;3789;47.064;15.482;2023-08-17T02:30:18;16.70;99.90
7496;DHT22;3789;47.064;15.482;2023-08-17T02:32:54;16.80;99.90
7496;DHT22;3789;47.064;15.482;2023-08-17T02:35:26;16.90;99.90
7496;DHT22;3789;47.064;15.482;2023-08-17T02:38:08;17.00;99.90
7496;DHT22;3789;47.064;15.482;2023-08-17T02:40:44;17.00;99.90
7496;DHT22;3789;47.064;15.482;2023-08-17T02:43:13;16.90;99.90
7496;DHT22;3789;47.064;15.482;2023-08-17T02:45:43;16.80;99.90
7496;DHT22;3789;47.064;15.482;2023-08-17T02:48:15;16.80;99.90
7496;DHT22;3789;47.064;15.482;2023-08-17T02:50:51;16.80;99.90
7496;DHT22;3789;47.064;15.482;2023-08-17T02:53:19;16.80;99.90
7496;DHT22;3789;47.064;15.482;2023-08-17T02:55:56;16.90;99.90
7496;DHT22;3789;47.064;15.482;2023-08-17T02:58:49;17.00;99.90
7496;DHT22;3789;47.064;15.482;2023-08-17T03:01:22;17.10;99.90
7496;DHT22;3789;47.064;15.482;2023-08-17T03:03:52;17.10;99.90
7496;DHT22;3789;47.064;15.482;2023-08-17T03:06:27;17.10;99.90
7496;DHT22;3789;47.064;15.482;2023-08-17T03:09:12;17.20;99.90
7496;DHT22;3789;47.064;15.482;2023-08-17T03:11:44;17.20;99.90
7496;DHT22;3789;47.064;15.482;2023-08-17T03:14:23;17.20;99.90
7496;DHT22;3789;47.064;15.482;2023-08-17T03:17:00;17.20;99.90
7496;DHT22;3789;47.064;15.482;2023-08-17T03:19:28;17.10;99.90
7496;DHT22;3789;47.064;15.482;2023-08-17T03:22:11;17.10;99.90
7496;DHT22;3789;47.064;15.482;2023-08-17T03:24:38;17.00;99.90
7496;DHT22;3789;47.064;15.482;2023-08-17T03:27:19;16.90;99.90
7496;DHT22;3789;47.064;15.482;2023-08-17T03:29:50;16.90;99.90
7496;DHT22;3789;47.064;15.482;2023-08-17T03:32:30;17.00;99.90
7496;DHT22;3789;47.064;15.482;2023-08-17T03:35:07;16.90;99.90
7496;DHT22;3789;47.064;15.482;2023-08-17T03:37:38;16.60;99.90
7496;DHT22;3789;47.064;15.482;2023-08-17T03:40:17;16.50;99.90
7496;DHT22;3789;47.064;15.482;2023-08-17T03:42:57;16.50;99.90
7496;DHT22;3789;47.064;15.482;2023-08-17T03:45:32;16.50;99.90
7496;DHT22;3789;47.064;15.482;2023-08-17T03:48:03;16.50;99.90
7496;DHT22;3789;47.064;15.482;2023-08-17T03:50:46;16.60;99.90
7496;DHT22;3789;47.064;15.482;2023-08-17T03:53:23;16.60;99.90
7496;DHT22;3789;47.064;15.482;2023-08-17T03:55:52;16.50;99.90
7496;DHT22;3789;47.064;15.482;2023-08-17T03:58:21;16.70;99.90
7496;DHT22;3789;47.064;15.482;2023-08-17T04:00:53;16.70;99.90
7496;DHT22;3789;47.064;15.482;2023-08-17T04:03:24;16.60;99.90
7496;DHT22;3789;47.064;15.482;2023-08-17T04:05:53;16.70;99.90
7496;DHT22;3789;47.064;15.482;2023-08-17T04:08:24;16.80;99.90
7496;DHT22;3789;47.064;15.482;2023-08-17T04:10:55;16.70;99.90
7496;DHT22;3789;47.064;15.482;2023-08-17T04:13:23;16.70;99.90
7496;DHT22;3789;47.064;15.482;2023-08-17T04:16:00;16.90;99.90
7496;DHT22;3789;47.064;15.482;2023-08-17T04:18:29;16.90;99.90
7496;DHT22;3789;47.064;15.482;2023-08-17T04:20:58;16.80;99.90
7496;DHT22;3789;47.064;15.482;2023-08-17T04:23:34;16.90;99.90
7496;DHT22;3789;47.064;15.482;2023-08-17T04:26:04;17.00;99.90
7496;DHT22;3789;47.064;15.482;2023-08-17T04:28:35;17.00;99.90
7496;DHT22;3789;47.064;15.482;2023-08-17T04:31:06;16.80;99.90
7496;DHT22;3789;47.064;15.482;2023-08-17T04:33:42;16.60;99.90
7496;DHT22;3789;47.064;15.482;2023-08-17T04:36:11;16.60;99.90
7496;DHT22;3789;47.064;15.482;2023-08-17T04:38:42;16.60;99.90
7496;DHT22;3789;47.064;15.482;2023-08-17T04:41:10;16.80;99.90
7496;DHT22;3789;47.064;15.482;2023-08-17T04:43:40;16.70;99.90
7496;DHT22;3789;47.064;15.482;2023-08-17T04:46:12;16.80;99.90
7496;DHT22;3789;47.064;15.482;2023-08-17T04:48:41;16.90;99.90
7496;DHT22;3789;47.064;15.482;2023-08-17T04:51:09;17.00;99.90
7496;DHT22;3789;47.064;15.482;2023-08-17T04:53:46;17.30;99.90
7496;DHT22;3789;47.064;15.482;2023-08-17T04:56:15;17.40;99.90
7496;DHT22;3789;47.064;15.482;2023-08-17T04:58:44;17.40;99.90
7496;DHT22;3789;47.064;15.482;2023-08-17T05:01:12;17.30;99.90
7496;DHT22;3789;47.064;15.482;2023-08-17T05:03:49;17.40;99.90
7496;DHT22;3789;47.064;15.482;2023-08-17T05:06:16;17.50;99.90
7496;DHT22;3789;47.064;15.482;2023-08-17T05:08:50;17.60;99.90
7496;DHT22;3789;47.064;15.482;2023-08-17T05:11:18;17.30;99.90
7496;DHT22;3789;47.064;15.482;2023-08-17T05:13:48;17.20;99.90
7496;DHT22;3789;47.064;15.482;2023-08-17T05:16:18;17.30;99.90
7496;DHT22;3789;47.064;15.482;2023-08-17T05:18:48;17.70;99.90
7496;DHT22;3789;47.064;15.482;2023-08-17T05:21:17;18.00;99.90
7496;DHT22;3789;47.064;15.482;2023-08-17T05:23:45;18.30;99.90
7496;DHT22;3789;47.064;15.482;2023-08-17T05:26:16;18.80;99.90
7496;DHT22;3789;47.064;15.482;2023-08-17T05:28:47;19.40;99.90
7496;DHT22;3789;47.064;15.482;2023-08-17T05:31:18;19.60;99.90
7496;DHT22;3789;47.064;15.482;2023-08-17T05:33:48;19.70;99.90
7496;DHT22;3789;47.064;15.482;2023-08-17T05:36:25;19.70;99.90
7496;DHT22;3789;47.064;15.482;2023-08-17T05:39:02;19.60;99.90
7496;DHT22;3789;47.064;15.482;2023-08-17T05:41:31;19.60;99.90
7496;DHT22;3789;47.064;15.482;2023-08-17T05:44:02;20.20;99.90
7496;DHT22;3789;47.064;15.482;2023-08-17T05:46:45;20.80;99.90
7496;DHT22;3789;47.064;15.482;2023-08-17T05:49:20;21.30;99.90
7496;DHT22;3789;47.064;15.482;2023-08-17T05:52:01;22.10;99.90
7496;DHT22;3789;47.064;15.482;2023-08-17T05:54:33;22.60;99.90
7496;DHT22;3789;47.064;15.482;2023-08-17T05:57:09;22.80;99.90
7496;DHT22;3789;47.064;15.482;2023-08-17T05:59:43;22.50;99.90
7496;DHT22;3789;47.064;15.482;2023-08-17T06:02:20;22.20;99.90
7496;DHT22;3789;47.064;15.482;2023-08-17T06:05:23;21.60;99.90
7496;DHT22;3789;47.064;15.482;2023-08-17T06:08:15;20.80;99.90
7496;DHT22;3789;47.064;15.482;2023-08-17T06:10:50;20.30;99.90
7496;DHT22;3789;47.064;15.482;2023-08-17T06:13:19;19.50;99.90
7496;DHT22;3789;47.064;15.482;2023-08-17T06:15:48;19.60;99.90
7496;DHT22;3789;47.064;15.482;2023-08-17T06:18:20;19.60;99.90
7496;DHT22;3789;47.064;15.482;2023-08-17T06:20:51;19.70;99.90
7496;DHT22;3789;47.064;15.482;2023-08-17T06:23:22;19.70;99.90
7496;DHT22;3789;47.064;15.482;2023-08-17T06:25:58;19.70;99.90
7496;DHT22;3789;47.064;15.482;2023-08-17T06:28:33;19.70;99.90
7496;DHT22;3789;47.064;15.482;2023-08-17T06:31:05;19.70;99.90
7496;DHT22;3789;47.064;15.482;2023-08-17T06:33:36;20.00;99.90
7496;DHT22;3789;47.064;15.482;2023-08-17T06:36:19;20.50;99.90
7496;DHT22;3789;47.064;15.482;2023-08-17T06:38:51;20.80;99.90
7496;DHT22;3789;47.064;15.482;2023-08-17T06:41:26;20.80;99.90
7496;DHT22;3789;47.064;15.482;2023-08-17T06:43:55;21.10;99.90
7496;DHT22;3789;47.064;15.482;2023-08-17T06:46:32;22.20;99.90
7496;DHT22;3789;47.064;15.482;2023-08-17T06:49:11;23.20;99.90
7496;DHT22;3789;47.064;15.482;2023-08-17T06:51:42;23.60;99.90
7496;DHT22;3789;47.064;15.482;2023-08-17T06:54:12;24.30;99.90
7496;DHT22;3789;47.064;15.482;2023-08-17T06:56:41;25.00;99.90
7496;DHT22;3789;47.064;15.482;2023-08-17T06:59:19;24.30;99.90
7496;DHT22;3789;47.064;15.482;2023-08-17T07:01:53;24.00;99.90
7496;DHT22;3789;47.064;15.482;2023-08-17T07:04:21;23.60;99.90
7496;DHT22;3789;47.064;15.482;2023-08-17T07:06:51;23.70;99.90
7496;DHT22;3789;47.064;15.482;2023-08-17T07:09:22;24.20;99.90
7496;DHT22;3789;47.064;15.482;2023-08-17T07:11:51;24.90;99.90
7496;DHT22;3789;47.064;15.482;2023-08-17T07:14:19;24.90;99.90
7496;DHT22;3789;47.064;15.482;2023-08-17T07:16:58;25.20;99.90
7496;DHT22;3789;47.064;15.482;2023-08-17T07:19:28;24.70;99.90
7496;DHT22;3789;47.064;15.482;2023-08-17T07:22:18;24.50;99.90
7496;DHT22;3789;47.064;15.482;2023-08-17T07:24:56;25.00;99.90
7496;DHT22;3789;47.064;15.482;2023-08-17T07:27:30;25.30;99.90
7496;DHT22;3789;47.064;15.482;2023-08-17T07:29:58;24.80;99.90
7496;DHT22;3789;47.064;15.482;2023-08-17T07:32:28;24.50;99.90
7496;DHT22;3789;47.064;15.482;2023-08-17T07:34:57;23.60;99.90
7496;DHT22;3789;47.064;15.482;2023-08-17T07:37:27;23.40;99.90
7496;DHT22;3789;47.064;15.482;2023-08-17T07:40:01;23.70;99.90
7496;DHT22;3789;47.064;15.482;2023-08-17T07:42:33;23.50;99.90
7496;DHT22;3789;47.064;15.482;2023-08-17T07:45:11;23.40;99.90
7496;DHT22;3789;47.064;15.482;2023-08-17T07:47:42;23.20;99.90
7496;DHT22;3789;47.064;15.482;2023-08-17T07:50:15;23.00;99.90
7496;DHT22;3789;47.064;15.482;2023-08-17T07:52:46;22.90;99.90
7496;DHT22;3789;47.064;15.482;2023-08-17T07:55:15;23.10;99.90
7496;DHT22;3789;47.064;15.482;2023-08-17T07:57:44;23.10;99.90
7496;DHT22;3789;47.064;15.482;2023-08-17T08:00:25;23.10;99.90
7496;DHT22;3789;47.064;15.482;2023-08-17T08:02:54;23.40;99.90
7496;DHT22;3789;47.064;15.482;2023-08-17T08:05:28;23.70;99.90
7496;DHT22;3789;47.064;15.482;2023-08-17T08:08:05;23.90;99.90
7496;DHT22;3789;47.064;15.482;2023-08-17T08:10:35;24.10;99.90
7496;DHT22;3789;47.064;15.482;2023-08-17T08:13:13;23.70;99.90
7496;DHT22;3789;47.064;15.482;2023-08-17T08:15:44;23.60;99.90
7496;DHT22;3789;47.064;15.482;2023-08-17T08:18:20;23.90;99.90
7496;DHT22;3789;47.064;15.482;2023-08-17T08:20:55;24.00;99.90
7496;DHT22;3789;47.064;15.482;2023-08-17T08:23:43;23.80;99.90
7496;DHT22;3789;47.064;15.482;2023-08-17T08:26:21;23.40;99.90
7496;DHT22;3789;47.064;15.482;2023-08-17T08:29:12;23.30;99.90
7496;DHT22;3789;47.064;15.482;2023-08-17T08:31:44;23.70;99.90
7496;DHT22;3789;47.064;15.482;2023-08-17T08:34:13;24.00;99.90
7496;DHT22;3789;47.064;15.482;2023-08-17T08:36:44;24.50;99.90
7496;DHT22;3789;47.064;15.482;2023-08-17T08:39:19;24.40;99.90
7496;DHT22;3789;47.064;15.482;2023-08-17T08:41:47;24.70;99.90
7496;DHT22;3789;47.064;15.482;2023-08-17T08:44:14;24.70;99.90
7496;DHT22;3789;47.064;15.482;2023-08-17T08:46:44;24.20;99.90
7496;DHT22;3789;47.064;15.482;2023-08-17T08:49:19;24.70;99.90
7496;DHT22;3789;47.064;15.482;2023-08-17T08:51:52;25.10;99.90
7496;DHT22;3789;47.064;15.482;2023-08-17T08:54:25;25.30;99.90
7496;DHT22;3789;47.064;15.482;2023-08-17T08:57:19;25.40;99.90
7496;DHT22;3789;47.064;15.482;2023-08-17T08:59:57;25.80;99.90
7496;DHT22;3789;47.064;15.482;2023-08-17T09:02:36;26.00;99.90
7496;DHT22;3789;47.064;15.482;2023-08-17T09:05:13;26.20;99.90
7496;DHT22;3789;47.064;15.482;2023-08-17T09:07:51;25.70;99.90
7496;DHT22;3789;47.064;15.482;2023-08-17T09:10:24;25.20;99.90
7496;DHT22;3789;47.064;15.482;2023-08-17T09:13:07;24.90;99.90
7496;DHT22;3789;47.064;15.482;2023-08-17T09:15:37;24.80;99.90
7496;DHT22;3789;47.064;15.482;2023-08-17T09:18:15;24.80;99.90
7496;DHT22;3789;47.064;15.482;2023-08-17T09:20:47;25.20;99.90
7496;DHT22;3789;47.064;15.482;2023-08-17T09:23:17;25.70;99.90
7496;DHT22;3789;47.064;15.482;2023-08-17T09:25:49;25.90;99.90
7496;DHT22;3789;47.064;15.482;2023-08-17T09:28:20;25.80;99.90
7496;DHT22;3789;47.064;15.482;2023-08-17T09:31:04;25.80;99.90
7496;DHT22;3789;47.064;15.482;2023-08-17T09:33:36;26.00;99.90
7496;DHT22;3789;47.064;15.482;2023-08-17T09:36:04;26.10;99.90
7496;DHT22;3789;47.064;15.482;2023-08-17T09:38:38;26.20;99.90
7496;DHT22;3789;47.064;15.482;2023-08-17T09:41:06;26.10;99.90
7496;DHT22;3789;47.064;15.482;2023-08-17T09:43:48;26.20;99.90
7496;DHT22;3789;47.064;15.482;2023-08-17T09:46:17;26.40;99.90
7496;DHT22;3789;47.064;15.482;2023-08-17T09:48:47;26.00;99.90
7496;DHT22;3789;47.064;15.482;2023-08-17T09:51:19;26.30;99.90
7496;DHT22;3789;47.064;15.482;2023-08-17T09:53:54;26.50;99.90
7496;DHT22;3789;47.064;15.482;2023-08-17T09:56:29;26.30;99.90
7496;DHT22;3789;47.064;15.482;2023-08-17T09:59:08;26.10;99.90
7496;DHT22;3789;47.064;15.482;2023-08-17T10:01:52;25.80;99.90
7496;DHT22;3789;47.064;15.482;2023-08-17T10:04:33;26.00;99.90
7496;DHT22;3789;47.064;15.482;2023-08-17T10:07:17;25.60;99.90
7496;DHT22;3789;47.064;15.482;2023-08-17T10:10:09;25.80;99.90
7496;DHT22;3789;47.064;15.482;2023-08-17T10:12:48;26.20;99.90
7496;DHT22;3789;47.064;15.482;2023-08-17T10:16:27;26.70;99.90
7496;DHT22;3789;47.064;15.482;2023-08-17T10:19:43;26.90;99.90
7496;DHT22;3789;47.064;15.482;2023-08-17T10:22:33;27.30;99.90
7496;DHT22;3789;47.064;15.482;2023-08-17T10:25:13;27.60;99.90
7496;DHT22;3789;47.064;15.482;2023-08-17T10:27:55;27.70;99.90
7496;DHT22;3789;47.064;15.482;2023-08-17T10:30:27;27.90;99.90
7496;DHT22;3789;47.064;15.482;2023-08-17T10:32:56;28.00;99.90
7496;DHT22;3789;47.064;15.482;2023-08-17T10:35:37;28.00;99.90
7496;DHT22;3789;47.064;15.482;2023-08-17T10:38:09;27.40;99.90
7496;DHT22;3789;47.064;15.482;2023-08-17T10:40:40;27.30;99.90
7496;DHT22;3789;47.064;15.482;2023-08-17T10:43:10;27.20;99.90
7496;DHT22;3789;47.064;15.482;2023-08-17T10:45:44;26.60;99.90
7496;DHT22;3789;47.064;15.482;2023-08-17T10:48:31;25.70;99.90
7496;DHT22;3789;47.064;15.482;2023-08-17T10:51:04;25.30;99.90
7496;DHT22;3789;47.064;15.482;2023-08-17T10:53:37;25.30;99.90
7496;DHT22;3789;47.064;15.482;2023-08-17T10:56:14;25.30;99.90
7496;DHT22;3789;47.064;15.482;2023-08-17T10:58:45;25.00;99.90
7496;DHT22;3789;47.064;15.482;2023-08-17T11:01:22;25.10;99.90
7496;DHT22;3789;47.064;15.482;2023-08-17T11:04:19;25.10;99.90
7496;DHT22;3789;47.064;15.482;2023-08-17T11:07:01;25.10;99.90
7496;DHT22;3789;47.064;15.482;2023-08-17T11:09:36;25.00;99.90
7496;DHT22;3789;47.064;15.482;2023-08-17T11:12:05;25.50;99.90
7496;DHT22;3789;47.064;15.482;2023-08-17T11:14:35;25.70;99.90
7496;DHT22;3789;47.064;15.482;2023-08-17T11:17:05;25.60;99.90
7496;DHT22;3789;47.064;15.482;2023-08-17T11:19:34;26.10;99.90
7496;DHT22;3789;47.064;15.482;2023-08-17T11:22:04;26.10;99.90
7496;DHT22;3789;47.064;15.482;2023-08-17T11:24:54;26.50;99.90
7496;DHT22;3789;47.064;15.482;2023-08-17T11:27:23;26.80;99.90
7496;DHT22;3789;47.064;15.482;2023-08-17T11:29:52;27.00;99.90
7496;DHT22;3789;47.064;15.482;2023-08-17T11:32:30;27.10;99.90
7496;DHT22;3789;47.064;15.482;2023-08-17T11:35:03;26.50;99.90
7496;DHT22;3789;47.064;15.482;2023-08-17T11:37:32;25.80;99.90
7496;DHT22;3789;47.064;15.482;2023-08-17T11:40:11;25.70;99.90
7496;DHT22;3789;47.064;15.482;2023-08-17T11:42:42;25.50;99.90
7496;DHT22;3789;47.064;15.482;2023-08-17T11:45:12;25.40;99.90
7496;DHT22;3789;47.064;15.482;2023-08-17T11:47:41;25.50;99.90
7496;DHT22;3789;47.064;15.482;2023-08-17T11:50:14;25.60;99.90
7496;DHT22;3789;47.064;15.482;2023-08-17T11:52:49;25.60;99.90
7496;DHT22;3789;47.064;15.482;2023-08-17T11:55:17;25.70;99.90
7496;DHT22;3789;47.064;15.482;2023-08-17T11:57:50;25.70;99.90
7496;DHT22;3789;47.064;15.482;2023-08-17T12:00:22;25.70;99.90
7496;DHT22;3789;47.064;15.482;2023-08-17T12:02:54;25.40;99.90
7496;DHT22;3789;47.064;15.482;2023-08-17T12:05:31;25.50;99.90
7496;DHT22;3789;47.064;15.482;2023-08-17T12:08:03;25.90;99.90
7496;DHT22;3789;47.064;15.482;2023-08-17T12:10:34;25.80;99.90
7496;DHT22;3789;47.064;15.482;2023-08-17T12:13:15;25.50;99.90
7496;DHT22;3789;47.064;15.482;2023-08-17T12:15:44;25.40;99.90
7496;DHT22;3789;47.064;15.482;2023-08-17T12:18:16;25.40;99.90
7496;DHT22;3789;47.064;15.482;2023-08-17T12:20:55;25.80;99.90
7496;DHT22;3789;47.064;15.482;2023-08-17T12:23:27;26.00;99.90
7496;DHT22;3789;47.064;15.482;2023-08-17T12:25:58;26.10;99.90
7496;DHT22;3789;47.064;15.482;2023-08-17T12:28:27;26.00;99.90
7496;DHT22;3789;47.064;15.482;2023-08-17T12:31:03;26.00;99.90
7496;DHT22;3789;47.064;15.482;2023-08-17T12:33:36;26.10;99.90
7496;DHT22;3789;47.064;15.482;2023-08-17T12:36:13;26.30;99.90
7496;DHT22;3789;47.064;15.482;2023-08-17T12:38:42;26.70;99.90
7496;DHT22;3789;47.064;15.482;2023-08-17T12:41:13;26.80;99.90
7496;DHT22;3789;47.064;15.482;2023-08-17T12:43:50;26.80;99.90
7496;DHT22;3789;47.064;15.482;2023-08-17T12:46:17;27.00;99.90
7496;DHT22;3789;47.064;15.482;2023-08-17T12:48:47;27.20;99.90
7496;DHT22;3789;47.064;15.482;2023-08-17T12:51:17;26.50;99.90
7496;DHT22;3789;47.064;15.482;2023-08-17T12:53:50;26.10;99.90
7496;DHT22;3789;47.064;15.482;2023-08-17T12:56:19;25.70;99.90
7496;DHT22;3789;47.064;15.482;2023-08-17T12:58:47;25.50;99.90
7496;DHT22;3789;47.064;15.482;2023-08-17T13:01:19;25.50;99.90
7496;DHT22;3789;47.064;15.482;2023-08-17T13:03:50;25.60;99.90
7496;DHT22;3789;47.064;15.482;2023-08-17T13:06:20;25.70;99.90
7496;DHT22;3789;47.064;15.482;2023-08-17T13:08:49;25.90;99.90
7496;DHT22;3789;47.064;15.482;2023-08-17T13:11:20;25.90;99.90
7496;DHT22;3789;47.064;15.482;2023-08-17T13:13:52;25.90;99.90
7496;DHT22;3789;47.064;15.482;2023-08-17T13:16:29;25.90;99.90
7496;DHT22;3789;47.064;15.482;2023-08-17T13:18:57;25.80;99.90
7496;DHT22;3789;47.064;15.482;2023-08-17T13:21:26;25.80;99.90
7496;DHT22;3789;47.064;15.482;2023-08-17T13:23:54;25.80;99.90
7496;DHT22;3789;47.064;15.482;2023-08-17T13:26:34;25.80;99.90
7496;DHT22;3789;47.064;15.482;2023-08-17T13:29:04;26.10;99.90
7496;DHT22;3789;47.064;15.482;2023-08-17T13:31:33;26.40;99.90
7496;DHT22;3789;47.064;15.482;2023-08-17T13:34:11;26.30;99.90
7496;DHT22;3789;47.064;15.482;2023-08-17T13:36:40;26.30;99.90
7496;DHT22;3789;47.064;15.482;2023-08-17T13:39:18;26.10;99.90
7496;DHT22;3789;47.064;15.482;2023-08-17T13:42:23;26.20;99.90
7496;DHT22;3789;47.064;15.482;2023-08-17T13:45:17;26.50;99.90
7496;DHT22;3789;47.064;15.482;2023-08-17T13:47:51;26.70;99.90
7496;DHT22;3789;47.064;15.482;2023-08-17T13:50:27;26.70;99.90
7496;DHT22;3789;47.064;15.482;2023-08-17T13:52:57;26.70;99.90
7496;DHT22;3789;47.064;15.482;2023-08-17T13:55:30;26.40;99.90
7496;DHT22;3789;47.064;15.482;2023-08-17T13:58:01;26.40;99.90
7496;DHT22;3789;47.064;15.482;2023-08-17T14:00:46;26.10;99.90
7496;DHT22;3789;47.064;15.482;2023-08-17T14:03:26;25.80;99.90
7496;DHT22;3789;47.064;15.482;2023-08-17T14:06:16;25.80;99.90
7496;DHT22;3789;47.064;15.482;2023-08-17T14:08:52;25.70;99.90
7496;DHT22;3789;47.064;15.482;2023-08-17T14:11:29;26.00;99.90
7496;DHT22;3789;47.064;15.482;2023-08-17T14:14:06;26.20;99.90
7496;DHT22;3789;47.064;15.482;2023-08-17T14:16:38;26.10;99.90
7496;DHT22;3789;47.064;15.482;2023-08-17T14:19:18;26.00;99.90
7496;DHT22;3789;47.064;15.482;2023-08-17T14:21:49;25.80;99.90
7496;DHT22;3789;47.064;15.482;2023-08-17T14:24:17;25.70;99.90
7496;DHT22;3789;47.064;15.482;2023-08-17T14:26:52;25.80;99.90
7496;DHT22;3789;47.064;15.482;2023-08-17T14:29:21;25.80;99.90
7496;DHT22;3789;47.064;15.482;2023-08-17T14:31:50;25.70;99.90
7496;DHT22;3789;47.064;15.482;2023-08-17T14:34:32;25.60;99.90
7496;DHT22;3789;47.064;15.482;2023-08-17T14:37:19;25.50;99.90
7496;DHT22;3789;47.064;15.482;2023-08-17T14:39:52;25.50;99.90
7496;DHT22;3789;47.064;15.482;2023-08-17T14:42:29;25.30;99.90
7496;DHT22;3789;47.064;15.482;2023-08-17T14:45:19;25.30;99.90
7496;DHT22;3789;47.064;15.482;2023-08-17T14:47:49;25.20;99.90
7496;DHT22;3789;47.064;15.482;2023-08-17T14:50:30;25.10;99.90
7496;DHT22;3789;47.064;15.482;2023-08-17T14:53:10;25.20;99.90
7496;DHT22;3789;47.064;15.482;2023-08-17T14:55:47;25.30;99.90
7496;DHT22;3789;47.064;15.482;2023-08-17T15:01:23;25.30;99.90
7496;DHT22;3789;47.064;15.482;2023-08-17T15:03:55;25.20;99.90
7496;DHT22;3789;47.064;15.482;2023-08-17T15:06:55;25.20;99.90
7496;DHT22;3789;47.064;15.482;2023-08-17T15:09:32;25.10;99.90
7496;DHT22;3789;47.064;15.482;2023-08-17T15:12:09;25.00;99.90
7496;DHT22;3789;47.064;15.482;2023-08-17T15:14:45;24.90;99.90
7496;DHT22;3789;47.064;15.482;2023-08-17T15:17:25;24.90;99.90
7496;DHT22;3789;47.064;15.482;2023-08-17T15:19:54;24.90;99.90
7496;DHT22;3789;47.064;15.482;2023-08-17T15:22:29;24.90;99.90
7496;DHT22;3789;47.064;15.482;2023-08-17T15:24:58;24.90;99.90
7496;DHT22;3789;47.064;15.482;2023-08-17T15:27:39;24.90;99.90
7496;DHT22;3789;47.064;15.482;2023-08-17T15:30:24;24.90;99.90
7496;DHT22;3789;47.064;15.482;2023-08-17T15:33:05;24.90;99.90
7496;DHT22;3789;47.064;15.482;2023-08-17T15:35:51;24.90;99.90
7496;DHT22;3789;47.064;15.482;2023-08-17T15:38:26;24.90;99.90
7496;DHT22;3789;47.064;15.482;2023-08-17T15:41:11;24.80;99.90
7496;DHT22;3789;47.064;15.482;2023-08-17T15:43:50;24.90;99.90
7496;DHT22;3789;47.064;15.482;2023-08-17T15:46:28;24.80;99.90
7496;DHT22;3789;47.064;15.482;2023-08-17T15:49:22;24.70;99.90
7496;DHT22;3789;47.064;15.482;2023-08-17T15:51:54;24.80;99.90
7496;DHT22;3789;47.064;15.482;2023-08-17T15:54:39;24.70;99.90
7496;DHT22;3789;47.064;15.482;2023-08-17T15:57:18;24.80;99.90
7496;DHT22;3789;47.064;15.482;2023-08-17T15:59:48;24.70;99.90
7496;DHT22;3789;47.064;15.482;2023-08-17T16:02:21;24.70;99.90
7496;DHT22;3789;47.064;15.482;2023-08-17T16:04:54;24.80;99.90
7496;DHT22;3789;47.064;15.482;2023-08-17T16:07:34;24.80;99.90
7496;DHT22;3789;47.064;15.482;2023-08-17T16:10:11;24.80;99.90
7496;DHT22;3789;47.064;15.482;2023-08-17T16:12:58;24.90;99.90
7496;DHT22;3789;47.064;15.482;2023-08-17T16:15:28;24.80;99.90
7496;DHT22;3789;47.064;15.482;2023-08-17T16:17:55;24.70;99.90
7496;DHT22;3789;47.064;15.482;2023-08-17T16:20:29;24.60;99.90
7496;DHT22;3789;47.064;15.482;2023-08-17T16:23:01;24.50;99.90
7496;DHT22;3789;47.064;15.482;2023-08-17T16:25:38;24.50;99.90
7496;DHT22;3789;47.064;15.482;2023-08-17T16:28:23;24.30;99.90
7496;DHT22;3789;47.064;15.482;2023-08-17T16:30:52;24.20;99.90
7496;DHT22;3789;47.064;15.482;2023-08-17T16:33:23;24.10;99.90
7496;DHT22;3789;47.064;15.482;2023-08-17T16:35:53;24.10;99.90
7496;DHT22;3789;47.064;15.482;2023-08-17T16:38:22;24.00;99.90
7496;DHT22;3789;47.064;15.482;2023-08-17T16:40:52;23.90;99.90